Terminal Aerodrome Forecast
Issued by NWS

Home | Current Version | Previous Version | Text Only | Print | Product List | Glossary On
Versions: 1 2 3 4 5 6 7 8 9 10 11 12 13 14 15 16 17 18 19 20 21
000
FTUS46 KSEW 250520
TAFBLI
TAF
KBLI 250520Z 2506/2606 03005KT P6SM VCSH OVC060
     FM251200 00000KT P6SM SCT010 BKN070
     FM251800 VRB04KT P6SM SCT070
     FM252200 33006KT P6SM SKC=

USA.gov is the U.S. government's official web portal to all federal, state and local government web resources and services.